createdAt,value
2022-09-24T00:01:36.041Z,8.70
2022-09-24T00:04:06.166Z,8.78
2022-09-24T00:06:51.428Z,8.82
2022-09-24T00:09:21.989Z,8.77
2022-09-24T00:11:50.033Z,8.79
2022-09-24T00:14:17.406Z,8.76
2022-09-24T00:16:45.743Z,8.77
2022-09-24T00:19:14.017Z,8.79
2022-09-24T00:21:41.942Z,8.77
2022-09-24T00:24:36.115Z,8.75
2022-09-24T00:27:05.863Z,8.78
2022-09-24T00:29:35.697Z,8.67
2022-09-24T00:32:05.915Z,8.69
2022-09-24T00:34:33.454Z,8.67
2022-09-24T00:37:00.688Z,8.64
2022-09-24T00:39:28.328Z,8.71
2022-09-24T00:41:55.725Z,8.79
2022-09-24T00:44:41.224Z,8.79
2022-09-24T00:47:19.215Z,8.73
2022-09-24T00:49:49.673Z,8.81
2022-09-24T00:52:19.023Z,8.74
2022-09-24T00:54:47.092Z,8.75
2022-09-24T00:57:14.428Z,8.71
2022-09-24T00:59:43.518Z,8.80
2022-09-24T01:02:10.986Z,8.72
2022-09-24T01:04:38.242Z,8.65
2022-09-24T01:07:05.481Z,8.62
2022-09-24T01:09:32.876Z,8.56
2022-09-24T01:12:28.352Z,8.54
2022-09-24T01:15:02.919Z,8.65
2022-09-24T01:17:50.601Z,8.76
2022-09-24T01:20:36.210Z,8.79
2022-09-24T01:23:05.854Z,8.68
2022-09-24T01:25:46.009Z,8.64
2022-09-24T01:28:35.886Z,8.77
2022-09-24T01:31:16.961Z,8.74
2022-09-24T01:33:49.626Z,8.75
2022-09-24T01:36:18.275Z,8.83
2022-09-24T01:38:49.675Z,8.83
2022-09-24T01:41:18.633Z,8.87
2022-09-24T01:43:46.146Z,8.89
2022-09-24T01:46:16.520Z,8.83
2022-09-24T01:48:43.920Z,8.80
2022-09-24T01:51:33.876Z,8.91
2022-09-24T01:54:05.652Z,8.95
2022-09-24T01:56:47.604Z,8.94
2022-09-24T01:59:33.076Z,8.92
2022-09-24T02:02:28.841Z,8.85
2022-09-24T02:05:02.177Z,8.93
2022-09-24T02:08:05.651Z,8.95
2022-09-24T02:10:41.304Z,9.00
2022-09-24T02:13:13.564Z,8.94
2022-09-24T02:15:45.728Z,8.96
2022-09-24T02:18:17.655Z,8.97
2022-09-24T02:20:45.453Z,8.91
2022-09-24T02:23:15.930Z,8.91
2022-09-24T02:25:58.311Z,8.88
2022-09-24T02:28:26.775Z,8.77
2022-09-24T02:31:00.748Z,8.70
2022-09-24T02:33:51.070Z,8.72
2022-09-24T02:36:18.678Z,8.72
2022-09-24T02:38:46.858Z,8.70
2022-09-24T02:41:14.792Z,8.67
2022-09-24T02:43:41.885Z,8.62
2022-09-24T02:46:10.193Z,8.67
2022-09-24T02:48:37.368Z,8.71
2022-09-24T02:51:05.627Z,8.56
2022-09-24T02:53:34.631Z,8.62
2022-09-24T02:56:02.128Z,8.64
2022-09-24T02:58:30.088Z,8.67
2022-09-24T03:00:57.393Z,8.65
2022-09-24T03:03:24.827Z,8.68
2022-09-24T03:05:54.707Z,8.73
2022-09-24T03:08:22.835Z,8.61
2022-09-24T03:10:51.164Z,8.63
2022-09-24T03:13:19.045Z,8.72
2022-09-24T03:15:46.550Z,8.75
2022-09-24T03:18:14.405Z,8.76
2022-09-24T03:20:43.134Z,8.68
2022-09-24T03:23:10.440Z,8.77
2022-09-24T03:25:37.512Z,8.80
2022-09-24T03:28:04.815Z,8.72
2022-09-24T03:30:50.590Z,8.69
2022-09-24T03:33:17.696Z,8.66
2022-09-24T03:35:44.813Z,8.70
2022-09-24T03:38:11.913Z,8.73
2022-09-24T03:40:39.208Z,8.62
2022-09-24T03:43:06.364Z,8.58
2022-09-24T03:45:33.421Z,8.65
2022-09-24T03:48:00.652Z,8.59
2022-09-24T03:50:27.736Z,8.54
2022-09-24T03:52:55.132Z,8.57
2022-09-24T03:55:22.285Z,8.56
2022-09-24T03:57:49.390Z,8.54
2022-09-24T04:00:16.952Z,8.50
2022-09-24T04:02:45.032Z,8.46
2022-09-24T04:05:12.320Z,8.38
2022-09-24T04:07:39.878Z,8.42
2022-09-24T04:10:08.925Z,8.37
2022-09-24T04:12:36.203Z,8.35
2022-09-24T04:15:04.086Z,8.37
2022-09-24T04:17:31.511Z,8.32
2022-09-24T04:19:58.777Z,8.29
2022-09-24T04:22:26.246Z,8.35
2022-09-24T04:24:53.941Z,8.35
2022-09-24T04:27:21.829Z,8.28
2022-09-24T04:29:48.891Z,8.23
2022-09-24T04:32:16.049Z,8.13
2022-09-24T04:34:43.114Z,8.13
2022-09-24T04:37:10.271Z,8.12
2022-09-24T04:39:37.510Z,8.04
2022-09-24T04:42:04.818Z,8.06
2022-09-24T04:44:32.064Z,8.03
2022-09-24T04:47:03.003Z,7.97
2022-09-24T04:49:30.338Z,7.97
2022-09-24T04:51:58.352Z,8.00
2022-09-24T04:54:25.656Z,7.95
2022-09-24T04:56:52.940Z,7.80
2022-09-24T04:59:20.072Z,7.77
2022-09-24T05:01:47.371Z,7.75
2022-09-24T05:04:14.588Z,7.72
2022-09-24T05:06:41.810Z,7.75
2022-09-24T05:09:12.638Z,7.74
2022-09-24T05:11:40.011Z,7.69
2022-09-24T05:14:08.501Z,7.65
2022-09-24T05:16:35.810Z,7.67
2022-09-24T05:19:04.936Z,7.62
2022-09-24T05:21:32.302Z,7.65
2022-09-24T05:23:59.505Z,7.69
2022-09-24T05:26:44.870Z,7.80
2022-09-24T05:29:12.164Z,7.74
2022-09-24T05:31:39.321Z,7.76
2022-09-24T05:34:06.760Z,7.85
2022-09-24T05:36:33.999Z,7.88
2022-09-24T05:39:01.427Z,7.86
2022-09-24T05:41:28.561Z,7.85
2022-09-24T05:43:59.626Z,7.82
2022-09-24T05:46:27.053Z,7.74
2022-09-24T05:48:56.006Z,7.72
2022-09-24T05:51:23.111Z,7.79
2022-09-24T05:53:50.507Z,7.71
2022-09-24T05:56:18.538Z,7.74
2022-09-24T05:58:48.379Z,7.73
2022-09-24T06:01:15.392Z,7.65
2022-09-24T06:03:42.881Z,7.64
2022-09-24T06:06:10.341Z,7.69
2022-09-24T06:08:37.685Z,7.71
2022-09-24T06:11:08.570Z,7.76
2022-09-24T06:13:35.973Z,7.75
2022-09-24T06:16:08.914Z,7.84
2022-09-24T06:18:40.011Z,7.97
2022-09-24T06:21:11.525Z,7.91
2022-09-24T06:23:39.168Z,7.93
2022-09-24T06:26:07.876Z,7.98
2022-09-24T06:28:35.576Z,7.97
2022-09-24T06:31:03.648Z,8.03
2022-09-24T06:33:31.466Z,8.09
2022-09-24T06:36:02.260Z,8.12
2022-09-24T06:38:29.795Z,8.24
2022-09-24T06:41:01.797Z,8.27
2022-09-24T06:43:29.661Z,8.38
2022-09-24T06:45:58.029Z,8.41
2022-09-24T06:48:26.493Z,8.55
2022-09-24T06:50:54.748Z,8.67
2022-09-24T06:53:22.032Z,8.70
2022-09-24T06:55:49.415Z,8.60
2022-09-24T06:58:22.182Z,8.53
2022-09-24T07:01:02.284Z,8.48
2022-09-24T07:03:31.819Z,8.49
2022-09-24T07:06:04.902Z,8.50
2022-09-24T07:08:32.674Z,8.69
2022-09-24T07:11:00.731Z,8.84
2022-09-24T07:13:28.000Z,9.21
2022-09-24T07:15:55.256Z,9.46
2022-09-24T07:18:23.096Z,9.69
2022-09-24T07:20:56.810Z,9.78
2022-09-24T07:23:24.532Z,9.81
2022-09-24T07:25:56.244Z,9.74
2022-09-24T07:28:23.535Z,9.82
2022-09-24T07:30:57.878Z,9.88
2022-09-24T07:33:25.161Z,10.08
2022-09-24T07:35:52.357Z,10.29
2022-09-24T07:38:19.790Z,10.46
2022-09-24T07:40:47.170Z,10.63
2022-09-24T07:43:14.776Z,10.86
2022-09-24T07:45:42.754Z,11.21
2022-09-24T07:48:11.222Z,11.37
2022-09-24T07:50:40.524Z,11.16
2022-09-24T07:53:11.872Z,11.14
2022-09-24T07:55:41.056Z,11.90
2022-09-24T07:58:12.919Z,12.84
2022-09-24T08:00:40.495Z,13.61
2022-09-24T08:03:07.820Z,13.86
2022-09-24T08:05:34.913Z,13.60
2022-09-24T08:08:02.285Z,13.39
2022-09-24T08:10:29.585Z,13.26
2022-09-24T08:12:59.345Z,13.11
2022-09-24T08:15:26.729Z,13.12
2022-09-24T08:17:53.829Z,13.22
2022-09-24T08:20:23.444Z,13.39
2022-09-24T08:22:50.643Z,13.17
2022-09-24T08:25:17.791Z,12.97
2022-09-24T08:27:44.945Z,12.79
2022-09-24T08:30:12.629Z,12.66
2022-09-24T08:32:39.928Z,12.62
2022-09-24T08:35:08.275Z,12.72
2022-09-24T08:37:37.167Z,13.02
2022-09-24T08:40:04.670Z,13.41
2022-09-24T08:42:55.720Z,13.77
2022-09-24T08:45:41.221Z,13.94
2022-09-24T08:48:19.380Z,14.04
2022-09-24T08:50:53.409Z,14.22
2022-09-24T08:53:28.149Z,14.42
2022-09-24T08:56:01.962Z,14.70
2022-09-24T08:58:44.307Z,14.95
2022-09-24T09:01:11.964Z,15.18
2022-09-24T09:03:39.076Z,15.43
2022-09-24T09:06:41.817Z,15.32
2022-09-24T09:09:17.562Z,15.15
2022-09-24T09:11:49.120Z,14.97
2022-09-24T09:14:31.338Z,14.84
2022-09-24T09:17:07.116Z,14.94
2022-09-24T09:19:37.084Z,14.95
2022-09-24T09:22:16.541Z,15.07
2022-09-24T09:24:50.328Z,15.18
2022-09-24T09:27:19.632Z,15.37
2022-09-24T09:29:51.020Z,15.41
2022-09-24T09:32:49.992Z,15.24
2022-09-24T09:35:33.250Z,15.28
2022-09-24T09:38:19.635Z,15.29
2022-09-24T09:41:11.585Z,15.13
2022-09-24T09:43:41.870Z,15.13
2022-09-24T09:46:18.961Z,15.16
2022-09-24T09:48:52.259Z,15.14
2022-09-24T09:51:23.227Z,15.13
2022-09-24T09:54:02.376Z,15.07
2022-09-24T09:56:37.034Z,15.12
2022-09-24T09:59:18.804Z,15.34
2022-09-24T10:01:49.576Z,15.41
2022-09-24T10:04:43.530Z,15.56
2022-09-24T10:07:17.582Z,15.58
2022-09-24T10:09:46.851Z,15.72
2022-09-24T10:12:22.463Z,16.12
2022-09-24T10:15:05.378Z,16.56
2022-09-24T10:17:58.170Z,17.06
2022-09-24T10:20:33.801Z,17.28
2022-09-24T10:23:07.214Z,17.37
2022-09-24T10:25:37.842Z,17.46
2022-09-24T10:28:42.653Z,17.44
2022-09-24T10:31:30.449Z,17.39
2022-09-24T10:33:59.855Z,17.50
2022-09-24T10:36:30.039Z,17.55
2022-09-24T10:39:04.765Z,17.35
2022-09-24T10:41:32.478Z,17.32
2022-09-24T10:44:11.800Z,17.25
2022-09-24T10:47:00.796Z,17.24
2022-09-24T10:49:55.230Z,17.33
2022-09-24T10:52:36.044Z,17.31
2022-09-24T10:55:25.013Z,17.33
2022-09-24T10:57:58.557Z,17.52
2022-09-24T11:00:49.515Z,17.27
2022-09-24T11:03:37.154Z,17.30
2022-09-24T11:06:18.940Z,17.33
2022-09-24T11:09:17.423Z,17.41
2022-09-24T11:11:50.572Z,17.42
2022-09-24T11:14:23.557Z,17.59
2022-09-24T11:17:00.889Z,17.85
2022-09-24T11:19:31.865Z,17.99
2022-09-24T11:22:15.737Z,18.10
2022-09-24T11:25:09.102Z,18.21
2022-09-24T11:27:50.485Z,17.84
2022-09-24T11:30:32.080Z,17.75
2022-09-24T11:33:47.608Z,17.57
2022-09-24T11:36:33.453Z,17.38
2022-09-24T11:39:22.407Z,17.46
2022-09-24T11:42:08.195Z,17.35
2022-09-24T11:45:05.759Z,17.55
2022-09-24T11:47:33.985Z,17.65
2022-09-24T11:50:11.250Z,17.67
2022-09-24T11:52:45.568Z,17.78
2022-09-24T11:55:18.778Z,17.72
2022-09-24T11:57:57.064Z,17.94
2022-09-24T12:00:32.486Z,17.63
2022-09-24T12:03:11.094Z,17.50
2022-09-24T12:05:46.727Z,17.59
2022-09-24T12:08:27.751Z,17.66
2022-09-24T12:11:06.797Z,17.56
2022-09-24T12:13:42.725Z,17.73
2022-09-24T12:16:17.006Z,17.70
2022-09-24T12:18:50.736Z,17.70
2022-09-24T12:21:33.218Z,17.72
2022-09-24T12:24:07.355Z,17.65
2022-09-24T12:26:37.746Z,17.59
2022-09-24T12:29:51.199Z,17.67
2022-09-24T12:32:54.322Z,17.61
2022-09-24T12:35:49.808Z,17.69
2022-09-24T12:38:29.794Z,17.69
2022-09-24T12:41:25.234Z,17.74
2022-09-24T12:44:22.997Z,17.85
2022-09-24T12:46:59.410Z,17.90
2022-09-24T12:49:27.010Z,18.04
2022-09-24T12:51:56.645Z,17.93
2022-09-24T12:54:26.721Z,17.87
2022-09-24T12:57:25.924Z,17.87
2022-09-24T12:59:56.956Z,18.02
2022-09-24T13:02:43.809Z,17.95
2022-09-24T13:05:28.729Z,17.90
2022-09-24T13:08:25.305Z,17.93
2022-09-24T13:10:57.015Z,17.85
2022-09-24T13:13:27.362Z,17.70
2022-09-24T13:16:04.289Z,17.61
2022-09-24T13:18:34.749Z,17.47
2022-09-24T13:21:07.590Z,17.61
2022-09-24T13:23:37.861Z,17.98
2022-09-24T13:26:13.534Z,18.10
2022-09-24T13:28:48.320Z,18.11
2022-09-24T13:31:21.820Z,18.09
2022-09-24T13:33:55.075Z,18.14
2022-09-24T13:36:37.141Z,18.07
2022-09-24T13:39:24.567Z,18.27
2022-09-24T13:42:10.542Z,18.41
2022-09-24T13:44:49.124Z,18.23
2022-09-24T13:47:32.404Z,18.27
2022-09-24T13:50:14.389Z,18.39
2022-09-24T13:52:58.741Z,18.28
2022-09-24T13:55:40.083Z,18.18
2022-09-24T13:58:30.669Z,18.14
2022-09-24T14:01:00.305Z,18.27
2022-09-24T14:03:37.034Z,18.04
2022-09-24T14:06:13.127Z,18.03
2022-09-24T14:08:44.536Z,17.98
2022-09-24T14:11:15.977Z,17.91
2022-09-24T14:13:46.053Z,17.83
2022-09-24T14:16:23.023Z,17.82
2022-09-24T14:19:03.225Z,17.79
2022-09-24T14:21:45.574Z,17.90
2022-09-24T14:24:25.484Z,17.95
2022-09-24T14:26:58.470Z,18.01
2022-09-24T14:30:02.437Z,18.06
2022-09-24T14:32:36.721Z,18.15
2022-09-24T14:35:07.983Z,18.22
2022-09-24T14:37:45.943Z,18.21
2022-09-24T14:40:19.327Z,18.31
2022-09-24T14:42:53.708Z,18.36
2022-09-24T14:45:29.636Z,18.20
2022-09-24T14:48:05.211Z,18.16
2022-09-24T14:50:40.839Z,18.08
2022-09-24T14:53:33.013Z,18.00
2022-09-24T14:56:00.827Z,17.97
2022-09-24T14:58:27.957Z,17.98
2022-09-24T15:01:05.838Z,18.04
2022-09-24T15:03:50.190Z,17.79
2022-09-24T15:06:21.771Z,17.89
2022-09-24T15:08:57.433Z,17.83
2022-09-24T15:11:27.891Z,17.69
2022-09-24T15:14:08.675Z,17.72
2022-09-24T15:16:37.064Z,17.66
2022-09-24T15:19:07.548Z,17.64
2022-09-24T15:21:35.151Z,17.58
2022-09-24T15:24:02.854Z,17.51
2022-09-24T15:26:33.283Z,17.28
2022-09-24T15:29:02.074Z,17.05
2022-09-24T15:31:30.117Z,16.78
2022-09-24T15:33:57.395Z,16.56
2022-09-24T15:36:25.016Z,16.43
2022-09-24T15:38:58.159Z,16.30
2022-09-24T15:41:25.421Z,16.19
2022-09-24T15:43:56.614Z,16.06
2022-09-24T15:46:25.574Z,15.98
2022-09-24T15:48:53.203Z,15.99
2022-09-24T15:51:22.423Z,15.95
2022-09-24T15:53:50.682Z,16.03
2022-09-24T15:56:18.096Z,16.10
2022-09-24T15:58:45.312Z,15.97
2022-09-24T16:01:18.998Z,15.88
2022-09-24T16:03:46.287Z,15.84
2022-09-24T16:06:14.213Z,15.81
2022-09-24T16:08:42.596Z,15.75
2022-09-24T16:11:09.877Z,15.70
2022-09-24T16:13:37.883Z,15.58
2022-09-24T16:16:10.164Z,15.44
2022-09-24T16:18:39.812Z,15.41
2022-09-24T16:21:09.962Z,15.42
2022-09-24T16:23:37.508Z,15.27
2022-09-24T16:26:04.916Z,15.09
2022-09-24T16:28:32.336Z,14.96
2022-09-24T16:30:59.543Z,14.88
2022-09-24T16:33:26.838Z,14.84
2022-09-24T16:35:54.019Z,14.87
2022-09-24T16:38:23.028Z,15.02
2022-09-24T16:40:59.822Z,15.13
2022-09-24T16:43:27.394Z,15.06
2022-09-24T16:46:00.365Z,15.09
2022-09-24T16:48:28.245Z,15.08
2022-09-24T16:51:03.461Z,15.02
2022-09-24T16:53:31.170Z,15.00
2022-09-24T16:56:05.632Z,14.91
2022-09-24T16:58:33.715Z,14.90
2022-09-24T17:01:07.837Z,14.87
2022-09-24T17:03:35.339Z,14.87
2022-09-24T17:06:03.849Z,14.94
2022-09-24T17:08:51.462Z,14.96
2022-09-24T17:11:18.966Z,14.80
2022-09-24T17:13:47.566Z,14.86
2022-09-24T17:16:16.095Z,14.77
2022-09-24T17:18:46.051Z,14.68
2022-09-24T17:21:15.108Z,14.57
2022-09-24T17:23:42.540Z,14.47
2022-09-24T17:26:17.932Z,14.41
2022-09-24T17:28:46.824Z,14.37
2022-09-24T17:31:16.795Z,14.36
2022-09-24T17:33:44.979Z,14.37
2022-09-24T17:36:15.330Z,14.26
2022-09-24T17:38:43.158Z,14.26
2022-09-24T17:41:13.087Z,14.13
2022-09-24T17:43:41.634Z,14.11
2022-09-24T17:46:14.976Z,13.98
2022-09-24T17:48:45.045Z,13.87
2022-09-24T17:51:20.850Z,13.82
2022-09-24T17:53:48.376Z,13.70
2022-09-24T17:56:16.872Z,13.73
2022-09-24T17:58:49.586Z,13.71
2022-09-24T18:01:21.231Z,13.74
2022-09-24T18:03:53.203Z,13.81
2022-09-24T18:06:21.067Z,13.75
2022-09-24T18:08:48.236Z,13.71
2022-09-24T18:11:17.431Z,13.52
2022-09-24T18:13:46.057Z,13.44
2022-09-24T18:16:17.521Z,13.37
2022-09-24T18:18:45.318Z,13.30
2022-09-24T18:21:13.639Z,13.37
2022-09-24T18:23:42.037Z,13.26
2022-09-24T18:26:18.148Z,13.15
2022-09-24T18:28:49.866Z,13.17
2022-09-24T18:31:23.054Z,13.20
2022-09-24T18:33:52.377Z,13.20
2022-09-24T18:36:23.079Z,13.09
2022-09-24T18:38:50.375Z,13.02
2022-09-24T18:41:23.974Z,12.95
2022-09-24T18:43:52.399Z,12.88
2022-09-24T18:46:21.162Z,12.89
2022-09-24T18:48:50.924Z,12.88
2022-09-24T18:51:29.552Z,12.75
2022-09-24T18:53:59.757Z,12.74
2022-09-24T18:56:27.683Z,12.67
2022-09-24T18:58:55.792Z,12.74
2022-09-24T19:01:23.558Z,12.66
2022-09-24T19:03:51.107Z,12.65
2022-09-24T19:06:18.327Z,12.59
2022-09-24T19:08:46.141Z,12.73
2022-09-24T19:11:17.033Z,12.74
2022-09-24T19:13:49.586Z,12.82
2022-09-24T19:16:18.297Z,12.84
2022-09-24T19:18:46.682Z,12.70
2022-09-24T19:21:15.983Z,12.62
2022-09-24T19:23:46.296Z,12.69
2022-09-24T19:26:18.632Z,12.63
2022-09-24T19:28:47.684Z,12.73
2022-09-24T19:31:20.332Z,12.66
2022-09-24T19:33:50.238Z,12.60
2022-09-24T19:36:17.969Z,12.56
2022-09-24T19:38:45.480Z,12.46
2022-09-24T19:41:21.302Z,12.46
2022-09-24T19:43:52.139Z,12.53
2022-09-24T19:46:23.799Z,12.53
2022-09-24T19:48:54.039Z,12.54
2022-09-24T19:51:29.518Z,12.52
2022-09-24T19:53:58.972Z,12.39
2022-09-24T19:56:26.747Z,12.33
2022-09-24T19:58:56.362Z,12.25
2022-09-24T20:01:28.224Z,12.18
2022-09-24T20:03:57.131Z,12.08
2022-09-24T20:06:31.258Z,12.10
2022-09-24T20:08:59.474Z,12.10
2022-09-24T20:11:34.852Z,12.15
2022-09-24T20:14:05.905Z,12.13
2022-09-24T20:16:33.660Z,12.11
2022-09-24T20:19:02.581Z,12.04
2022-09-24T20:21:34.492Z,12.00
2022-09-24T20:24:04.730Z,11.89
2022-09-24T20:26:51.511Z,11.84
2022-09-24T20:29:20.049Z,11.79
2022-09-24T20:31:53.297Z,11.73
2022-09-24T20:34:33.862Z,11.81
2022-09-24T20:37:02.613Z,11.78
2022-09-24T20:39:30.931Z,11.73
2022-09-24T20:42:05.949Z,11.73
2022-09-24T20:44:34.053Z,11.81
2022-09-24T20:47:01.135Z,11.72
2022-09-24T20:49:29.833Z,11.66
2022-09-24T20:51:58.104Z,11.64
2022-09-24T20:54:27.001Z,11.68
2022-09-24T20:56:54.756Z,11.66
2022-09-24T20:59:23.588Z,11.61
2022-09-24T21:01:51.032Z,11.66
2022-09-24T21:04:20.183Z,11.63
2022-09-24T21:06:48.434Z,11.51
2022-09-24T21:09:17.419Z,11.44
2022-09-24T21:11:44.891Z,11.42
2022-09-24T21:14:12.393Z,11.44
2022-09-24T21:16:39.531Z,11.46
2022-09-24T21:19:07.979Z,11.45
2022-09-24T21:21:39.039Z,11.45
2022-09-24T21:24:09.539Z,11.43
2022-09-24T21:26:38.421Z,11.49
2022-09-24T21:29:09.652Z,11.39
2022-09-24T21:31:38.707Z,11.30
2022-09-24T21:34:07.652Z,11.21
2022-09-24T21:36:44.533Z,11.15
2022-09-24T21:39:23.355Z,11.19
2022-09-24T21:41:53.116Z,11.30
2022-09-24T21:44:21.481Z,11.40
2022-09-24T21:46:51.047Z,11.35
2022-09-24T21:49:19.459Z,11.36
2022-09-24T21:51:47.089Z,11.30
2022-09-24T21:54:17.647Z,11.30
2022-09-24T22:01:05.083Z,11.23
2022-09-24T22:03:32.841Z,11.10
2022-09-24T22:06:03.382Z,11.06
2022-09-24T22:08:32.043Z,11.01
2022-09-24T22:11:10.563Z,11.05
2022-09-24T22:13:38.951Z,11.00
2022-09-24T22:16:08.411Z,11.02
2022-09-24T22:18:37.113Z,11.01
2022-09-24T22:21:10.377Z,10.96
2022-09-24T22:23:37.901Z,10.97
2022-09-24T22:26:06.515Z,10.89
2022-09-24T22:28:34.585Z,10.74
2022-09-24T22:31:06.035Z,10.71
2022-09-24T22:33:52.405Z,10.62
2022-09-24T22:36:20.209Z,10.53
2022-09-24T22:38:49.445Z,10.51
2022-09-24T22:41:16.861Z,10.49
2022-09-24T22:43:44.568Z,10.51
2022-09-24T22:46:13.400Z,10.52
2022-09-24T22:48:40.667Z,10.58
2022-09-24T22:51:09.324Z,10.59
2022-09-24T22:53:38.660Z,10.69
2022-09-24T22:56:14.368Z,10.72
2022-09-24T22:58:44.815Z,10.71
2022-09-24T23:01:17.057Z,10.69
2022-09-24T23:03:44.953Z,10.66
2022-09-24T23:06:12.425Z,10.56
2022-09-24T23:08:41.217Z,10.51
2022-09-24T23:11:09.501Z,10.46
2022-09-24T23:13:38.236Z,10.45
2022-09-24T23:16:13.103Z,10.46
2022-09-24T23:18:42.270Z,10.49
2022-09-24T23:21:12.364Z,10.55
2022-09-24T23:23:40.036Z,10.51
2022-09-24T23:26:16.243Z,10.51
2022-09-24T23:28:46.119Z,10.48
2022-09-24T23:31:14.859Z,10.44
2022-09-24T23:33:42.428Z,10.40
2022-09-24T23:36:11.930Z,10.37
2022-09-24T23:38:39.569Z,10.36
2022-09-24T23:41:08.232Z,10.28
2022-09-24T23:43:36.200Z,10.31
2022-09-24T23:46:03.454Z,10.31
2022-09-24T23:48:31.598Z,10.26
2022-09-24T23:50:58.803Z,10.22
2022-09-24T23:53:26.641Z,10.26
2022-09-24T23:55:55.351Z,10.31
2022-09-24T23:58:23.923Z,10.26
